Time;durP1;ratioP1;P1;durP2;ratioP2;P2;SDS_P1;SDS_P2;PMS_P1;PMS_P2;Temp;Humidity;BMP_temperature;BMP_pressure;BME280_temperature;BME280_humidity;BME280_pressure;Samples;Min_cycle;Max_cycle;Signal;HPM_P1;HPM_P2
2021/06/22 00:02:21;;;;;;;0.50;0.20;;;;;;;17.30;100.00;99769.16;5012335;28;20449;-48
2021/06/22 00:04:48;;;;;;;1.50;1.40;;;;;;;17.20;100.00;99749.22;5009255;28;20550;-48
2021/06/22 00:07:19;;;;;;;0.50;0.20;;;;;;;17.13;100.00;99750.56;5012191;28;20452;-48
2021/06/22 00:09:47;;;;;;;0.50;0.30;;;;;;;17.31;100.00;99745.84;5012301;28;20475;-48
2021/06/22 00:12:14;;;;;;;0.50;0.20;;;;;;;17.23;100.00;99743.63;5011816;28;20452;-48
2021/06/22 00:14:41;;;;;;;3.13;0.73;;;;;;;17.24;100.00;99745.34;5004100;28;20825;-49
2021/06/22 00:17:08;;;;;;;0.50;0.20;;;;;;;17.38;100.00;99747.16;5012127;28;20466;-48
2021/06/22 00:19:36;;;;;;;0.50;0.20;;;;;;;17.24;100.00;99734.59;5012258;28;20452;-49
2021/06/22 00:22:03;;;;;;;0.50;0.27;;;;;;;17.15;100.00;99724.47;5011641;28;20530;-48
2021/06/22 00:24:29;;;;;;;0.50;0.20;;;;;;;16.95;100.00;99716.84;5012408;28;20524;-48
2021/06/22 00:26:56;;;;;;;0.50;0.20;;;;;;;17.02;100.00;99718.19;5012121;28;20448;-49
2021/06/22 00:29:24;;;;;;;0.50;0.20;;;;;;;17.10;100.00;99723.91;5012122;28;20453;-48
2021/06/22 00:31:51;;;;;;;0.50;0.20;;;;;;;17.12;100.00;99722.84;5011981;28;20456;-49
2021/06/22 00:34:18;;;;;;;0.50;0.20;;;;;;;17.36;100.00;99730.28;5011975;28;20456;-48
2021/06/22 00:36:45;;;;;;;0.50;0.20;;;;;;;17.22;100.00;99717.72;5012190;28;20445;-48
2021/06/22 00:39:11;;;;;;;0.50;0.20;;;;;;;17.14;100.00;99695.91;5012043;28;20510;-48
2021/06/22 00:41:38;;;;;;;0.50;0.40;;;;;;;17.18;100.00;99700.09;4998914;28;20523;-48
2021/06/22 00:44:07;;;;;;;0.50;0.20;;;;;;;17.22;100.00;99696.25;5012433;28;20510;-50
2021/06/22 00:46:35;;;;;;;0.50;0.37;;;;;;;17.01;100.00;99695.84;5010631;28;20460;-50
2021/06/22 00:49:03;;;;;;;0.50;0.20;;;;;;;17.06;100.00;99699.06;5011729;28;20459;-51
2021/06/22 00:51:30;;;;;;;0.50;0.20;;;;;;;17.24;100.00;99698.81;5011851;28;20476;-51
2021/06/22 00:53:58;;;;;;;1.17;1.03;;;;;;;17.00;100.00;99707.53;5012014;28;20954;-50
2021/06/22 00:56:25;;;;;;;0.50;0.20;;;;;;;16.74;100.00;99695.78;5012021;28;20810;-48
2021/06/22 00:58:52;;;;;;;0.50;0.20;;;;;;;16.76;100.00;99695.69;5011442;28;20453;-48
2021/06/22 01:01:18;;;;;;;0.50;0.20;;;;;;;16.78;100.00;99697.28;5011744;28;20939;-48
2021/06/22 01:03:45;;;;;;;0.50;0.20;;;;;;;16.83;100.00;99708.59;5011567;28;20506;-49
2021/06/22 01:06:12;;;;;;;0.50;0.30;;;;;;;16.87;100.00;99704.78;5011945;28;20543;-48
2021/06/22 01:08:40;;;;;;;0.50;0.20;;;;;;;16.99;100.00;99710.28;5011746;28;20461;-48
2021/06/22 01:11:07;;;;;;;0.50;0.20;;;;;;;16.70;100.00;99704.97;5011700;28;20522;-49
2021/06/22 01:13:33;;;;;;;0.50;0.20;;;;;;;16.81;100.00;99713.19;5011495;28;20456;-48
2021/06/22 01:16:00;;;;;;;0.50;0.40;;;;;;;16.72;100.00;99719.19;5011647;28;20448;-49
2021/06/22 01:18:27;;;;;;;0.40;0.20;;;;;;;16.91;100.00;99724.22;5011500;28;20539;-48
2021/06/22 01:20:57;;;;;;;0.50;0.20;;;;;;;16.89;100.00;99718.09;5011616;28;20935;-49
2021/06/22 01:23:24;;;;;;;0.47;0.30;;;;;;;16.71;100.00;99713.88;5014534;28;20938;-48
2021/06/22 01:25:51;;;;;;;0.40;0.20;;;;;;;16.69;100.00;99727.41;5015126;28;20510;-48
2021/06/22 01:28:18;;;;;;;0.40;0.20;;;;;;;16.98;100.00;99730.91;5014894;28;21008;-49
2021/06/22 01:30:45;;;;;;;0.43;0.20;;;;;;;17.04;100.00;99732.38;5014861;28;21038;-48
2021/06/22 01:33:11;;;;;;;0.40;0.20;;;;;;;17.18;100.00;99727.81;5015103;28;20456;-48
2021/06/22 01:35:38;;;;;;;0.50;0.20;;;;;;;17.23;100.00;99738.25;5015163;28;20502;-49
2021/06/22 01:38:08;;;;;;;0.50;0.20;;;;;;;17.17;100.00;99741.34;5014947;28;20448;-50
2021/06/22 01:40:43;;;;;;;0.50;0.30;;;;;;;17.34;100.00;99734.88;5004576;28;20469;-51
2021/06/22 01:43:10;;;;;;;0.50;0.20;;;;;;;17.35;100.00;99739.28;5012909;28;20510;-49
2021/06/22 01:45:37;;;;;;;0.50;0.30;;;;;;;17.38;100.00;99734.56;5014717;28;20496;-50
2021/06/22 01:48:04;;;;;;;0.50;0.20;;;;;;;16.91;100.00;99734.97;5011695;28;20511;-49
2021/06/22 01:50:31;;;;;;;0.50;0.33;;;;;;;16.73;100.00;99730.78;5014519;28;20531;-48
2021/06/22 01:52:58;;;;;;;0.60;0.53;;;;;;;16.84;100.00;99736.31;5014570;28;20478;-48
2021/06/22 01:55:38;;;;;;;0.40;0.20;;;;;;;16.90;100.00;99735.94;5014668;28;20938;-51
2021/06/22 01:58:11;;;;;;;0.40;0.20;;;;;;;16.61;100.00;99743.09;5014732;28;20472;-49
2021/06/22 02:00:39;;;;;;;0.40;0.20;;;;;;;16.71;100.00;99722.78;5014449;28;20551;-48
2021/06/22 02:03:07;;;;;;;3.70;0.90;;;;;;;16.64;100.00;99736.69;5014663;28;20449;-48
2021/06/22 02:05:34;;;;;;;0.40;0.20;;;;;;;16.85;100.00;99749.63;5014128;28;20549;-48
2021/06/22 02:08:00;;;;;;;0.40;0.20;;;;;;;16.71;100.00;99746.94;5014395;28;20544;-49
2021/06/22 02:10:27;;;;;;;1.63;1.00;;;;;;;16.90;100.00;99748.50;5014309;28;20478;-48
2021/06/22 02:12:54;;;;;;;0.40;0.20;;;;;;;16.39;100.00;99750.72;5014196;28;20460;-48
2021/06/22 02:15:21;;;;;;;0.40;0.20;;;;;;;16.39;100.00;99754.28;5014108;28;20957;-49
2021/06/22 02:17:49;;;;;;;0.40;0.20;;;;;;;16.37;100.00;99747.28;5014227;28;21021;-49
2021/06/22 02:20:16;;;;;;;0.60;0.57;;;;;;;16.41;100.00;99751.50;5013945;28;20484;-50
2021/06/22 02:22:43;;;;;;;0.40;0.20;;;;;;;16.59;100.00;99758.44;5014037;28;20946;-50
2021/06/22 02:25:11;;;;;;;0.40;0.30;;;;;;;16.59;100.00;99761.13;5014328;28;20528;-50
2021/06/22 02:27:39;;;;;;;0.40;0.20;;;;;;;16.65;100.00;99755.34;5014481;28;20510;-48
2021/06/22 02:30:09;;;;;;;0.40;0.20;;;;;;;16.58;100.00;99754.00;5013804;28;20510;-50
2021/06/22 02:32:36;;;;;;;0.50;0.40;;;;;;;16.44;100.00;99756.66;5014034;28;20444;-50
2021/06/22 02:35:06;;;;;;;0.40;0.20;;;;;;;16.57;100.00;99754.97;5012960;28;21040;-50
2021/06/22 02:37:33;;;;;;;0.40;0.20;;;;;;;16.69;100.00;99753.38;5014081;28;20456;-50
2021/06/22 02:40:00;;;;;;;0.40;0.20;;;;;;;16.67;100.00;99760.63;5008683;28;20473;-50
2021/06/22 02:42:27;;;;;;;3.83;2.47;;;;;;;16.90;100.00;99759.22;5006235;28;20449;-50
2021/06/22 02:44:53;;;;;;;0.40;0.20;;;;;;;16.65;100.00;99746.44;5013521;28;20573;-49
2021/06/22 02:47:20;;;;;;;0.40;0.30;;;;;;;16.52;100.00;99746.34;5012065;28;20518;-50
2021/06/22 02:49:47;;;;;;;0.40;0.20;;;;;;;16.69;100.00;99738.13;5013076;28;20904;-50
2021/06/22 02:52:13;;;;;;;0.50;0.30;;;;;;;16.88;100.00;99727.13;5013787;28;20478;-50
2021/06/22 02:54:40;;;;;;;0.47;0.30;;;;;;;16.77;100.00;99741.22;5013332;28;20464;-50
2021/06/22 02:57:09;;;;;;;0.40;0.20;;;;;;;16.84;100.00;99749.72;5013555;28;20861;-50
2021/06/22 02:59:37;;;;;;;0.40;0.20;;;;;;;16.94;100.00;99748.19;5013148;28;20511;-49
2021/06/22 03:02:05;;;;;;;0.40;0.30;;;;;;;16.41;100.00;99743.44;5013400;28;20453;-49
2021/06/22 03:04:33;;;;;;;0.40;0.20;;;;;;;16.57;100.00;99733.50;5013138;28;20980;-49
2021/06/22 03:07:00;;;;;;;0.40;0.20;;;;;;;16.67;100.00;99731.09;5013335;28;20828;-50
2021/06/22 03:09:26;;;;;;;0.50;0.20;;;;;;;16.62;100.00;99738.59;5013353;28;20452;-49
2021/06/22 03:11:54;;;;;;;0.40;0.20;;;;;;;16.66;100.00;99748.16;5013187;28;20511;-50
2021/06/22 03:14:21;;;;;;;0.40;0.20;;;;;;;16.80;100.00;99756.25;5012902;28;20507;-49
2021/06/22 03:16:49;;;;;;;0.40;0.20;;;;;;;16.87;100.00;99753.09;5013057;28;20519;-50
2021/06/22 03:19:17;;;;;;;0.40;0.20;;;;;;;16.56;100.00;99751.41;5013404;28;20457;-49
2021/06/22 03:21:44;;;;;;;0.40;0.20;;;;;;;16.65;100.00;99750.00;5013074;28;20563;-49
2021/06/22 03:24:15;;;;;;;0.40;0.20;;;;;;;16.46;100.00;99749.41;5012916;28;21004;-49
2021/06/22 03:26:43;;;;;;;0.40;0.20;;;;;;;16.52;100.00;99749.03;5012809;28;20493;-49
2021/06/22 03:29:10;;;;;;;0.40;0.20;;;;;;;16.63;100.00;99748.38;5012941;28;20463;-49
2021/06/22 03:31:37;;;;;;;0.40;0.20;;;;;;;16.71;100.00;99754.13;5013185;28;20476;-49
2021/06/22 03:34:05;;;;;;;0.40;0.20;;;;;;;16.72;100.00;99761.22;5013092;28;20532;-50
2021/06/22 03:36:32;;;;;;;0.40;0.20;;;;;;;16.67;100.00;99752.56;5012817;28;20479;-49
2021/06/22 03:38:59;;;;;;;0.40;0.20;;;;;;;16.63;100.00;99748.38;5012902;28;20460;-49
2021/06/22 03:41:26;;;;;;;0.50;0.40;;;;;;;16.32;100.00;99762.81;4999501;28;20517;-49
2021/06/22 03:43:56;;;;;;;1.03;1.03;;;;;;;16.40;100.00;99774.78;5012559;28;20488;-50
2021/06/22 03:46:22;;;;;;;3.23;0.87;;;;;;;16.29;100.00;99767.38;5010754;28;20499;-49
2021/06/22 03:48:49;;;;;;;0.40;0.20;;;;;;;16.24;100.00;99769.50;5012771;28;20834;-50
2021/06/22 03:51:15;;;;;;;0.40;0.20;;;;;;;16.06;100.00;99765.22;5012145;28;21044;-49
2021/06/22 03:53:42;;;;;;;0.40;0.20;;;;;;;16.02;100.00;99761.00;5012626;28;20511;-50
2021/06/22 03:56:09;;;;;;;0.40;0.20;;;;;;;16.11;100.00;99767.63;5012403;28;20445;-50
2021/06/22 03:58:37;;;;;;;2.70;0.73;;;;;;;16.09;100.00;99773.09;5012495;28;20526;-49
2021/06/22 04:01:04;;;;;;;0.40;0.20;;;;;;;16.28;100.00;99776.38;5012331;28;20468;-49
2021/06/22 04:03:31;;;;;;;2.50;1.23;;;;;;;16.35;100.00;99793.00;5012396;28;20459;-50
2021/06/22 04:05:58;;;;;;;0.40;0.20;;;;;;;16.25;100.00;99789.97;5012145;28;20542;-49
2021/06/22 04:08:25;;;;;;;0.43;0.20;;;;;;;16.32;100.00;99784.28;5012676;28;20511;-49
2021/06/22 04:10:52;;;;;;;0.40;0.20;;;;;;;16.37;100.00;99784.84;5012538;28;20468;-50
2021/06/22 04:13:19;;;;;;;0.40;0.20;;;;;;;16.48;100.00;99785.91;5008369;28;20565;-50
2021/06/22 04:15:45;;;;;;;0.50;0.30;;;;;;;16.56;100.00;99788.13;5011681;28;20445;-50
2021/06/22 04:18:12;;;;;;;0.40;0.20;;;;;;;16.50;100.00;99791.19;5012399;28;20464;-50
2021/06/22 04:20:39;;;;;;;0.40;0.20;;;;;;;16.61;100.00;99790.53;5012184;28;20902;-49
2021/06/22 04:23:06;;;;;;;0.40;0.20;;;;;;;16.52;100.00;99789.28;5009974;28;20460;-50
2021/06/22 04:25:34;;;;;;;0.40;0.20;;;;;;;16.24;100.00;99796.31;5011839;28;20495;-49
2021/06/22 04:28:03;;;;;;;0.40;0.20;;;;;;;16.50;100.00;99789.38;5010923;28;20456;-49
2021/06/22 04:30:31;;;;;;;0.40;0.20;;;;;;;16.37;100.00;99795.56;5012383;28;20477;-50
2021/06/22 04:32:59;;;;;;;0.40;0.20;;;;;;;16.70;100.00;99809.63;5012280;28;20477;-50
2021/06/22 04:35:28;;;;;;;2.50;1.50;;;;;;;16.89;100.00;99812.06;5012270;28;20456;-50
2021/06/22 04:37:56;;;;;;;0.40;0.20;;;;;;;17.00;100.00;99814.94;5012013;28;20453;-50
2021/06/22 04:40:23;;;;;;;0.40;0.20;;;;;;;17.13;100.00;99817.69;5003697;28;20469;-49
2021/06/22 04:42:50;;;;;;;0.40;0.20;;;;;;;17.17;100.00;99830.00;5006734;28;20502;-50
2021/06/22 04:45:20;;;;;;;0.40;0.20;;;;;;;17.34;100.00;99835.16;5001733;28;20527;-50
2021/06/22 04:47:47;;;;;;;0.40;0.20;;;;;;;17.17;100.00;99824.63;5011609;28;20479;-50
2021/06/22 04:50:14;;;;;;;0.50;0.37;;;;;;;17.15;100.00;99823.88;5012259;28;20503;-50
2021/06/22 04:52:41;;;;;;;0.40;0.20;;;;;;;17.27;100.00;99816.81;5012192;28;20452;-50
2021/06/22 04:55:15;;;;;;;0.50;0.40;;;;;;;17.38;100.00;99819.69;5012309;28;20452;-50
2021/06/22 04:57:45;;;;;;;0.40;0.20;;;;;;;17.46;100.00;99823.63;5013750;28;20452;-50
2021/06/22 05:00:13;;;;;;;0.40;0.20;;;;;;;17.60;100.00;99824.56;5002324;28;20520;-50
2021/06/22 05:02:41;;;;;;;0.50;0.20;;;;;;;17.64;100.00;99828.75;5014746;28;20452;-50
2021/06/22 05:05:09;;;;;;;0.40;0.30;;;;;;;17.79;100.00;99827.78;5015593;28;20448;-50
2021/06/22 05:07:36;;;;;;;0.40;0.20;;;;;;;17.90;100.00;99830.63;5015439;28;20946;-50
2021/06/22 05:10:03;;;;;;;0.40;0.20;;;;;;;17.98;100.00;99825.63;5015581;28;20507;-50
2021/06/22 05:12:30;;;;;;;0.43;0.20;;;;;;;17.98;100.00;99833.69;5015322;28;20444;-50
2021/06/22 05:14:56;;;;;;;0.50;0.30;;;;;;;18.01;100.00;99836.16;5008527;28;20466;-50
2021/06/22 05:17:23;;;;;;;0.50;0.20;;;;;;;17.96;100.00;99842.84;5015501;28;20479;-50
2021/06/22 05:19:50;;;;;;;1.10;1.10;;;;;;;18.01;100.00;99851.44;5015283;28;20499;-51
2021/06/22 05:22:17;;;;;;;0.50;0.30;;;;;;;18.27;100.00;99853.25;5015520;28;20872;-50
2021/06/22 05:24:44;;;;;;;0.47;0.20;;;;;;;18.03;100.00;99854.91;5015647;28;20876;-50
2021/06/22 05:27:12;;;;;;;0.50;0.20;;;;;;;17.99;100.00;99853.38;5015318;28;20853;-51
2021/06/22 05:29:41;;;;;;;0.40;0.20;;;;;;;18.06;100.00;99843.94;5008978;28;20460;-51
2021/06/22 05:32:07;;;;;;;0.40;0.20;;;;;;;18.20;100.00;99837.63;5015189;28;20460;-50
2021/06/22 05:34:34;;;;;;;0.50;0.20;;;;;;;18.02;100.00;99839.72;5014811;28;20475;-49
2021/06/22 05:37:01;;;;;;;0.50;0.20;;;;;;;18.32;100.00;99839.50;5015131;28;20445;-50
2021/06/22 05:39:28;;;;;;;0.50;0.20;;;;;;;18.10;100.00;99826.63;5010237;28;20511;-50
2021/06/22 05:41:55;;;;;;;0.40;0.20;;;;;;;17.98;100.00;99841.75;5003248;28;20501;-50
2021/06/22 05:44:21;;;;;;;0.50;0.20;;;;;;;18.21;100.00;99844.72;5014666;28;20511;-50
2021/06/22 05:46:48;;;;;;;0.50;0.20;;;;;;;18.30;100.00;99844.97;5012981;28;20542;-50
2021/06/22 05:49:15;;;;;;;0.50;0.30;;;;;;;18.44;100.00;99844.03;5014629;28;20459;-49
2021/06/22 05:51:42;;;;;;;0.40;0.20;;;;;;;18.18;100.00;99839.56;5014536;28;20484;-50
2021/06/22 05:54:09;;;;;;;0.40;0.20;;;;;;;18.60;100.00;99828.56;5001160;28;20576;-50
2021/06/22 05:56:36;;;;;;;0.40;0.20;;;;;;;18.62;100.00;99832.00;4997580;28;20458;-50
2021/06/22 05:59:02;;;;;;;0.50;0.20;;;;;;;18.55;100.00;99830.72;4991986;28;20492;-50
2021/06/22 06:01:29;;;;;;;0.50;0.30;;;;;;;18.55;100.00;99830.72;5014422;28;20522;-50
2021/06/22 06:03:56;;;;;;;0.40;0.20;;;;;;;18.70;100.00;99836.03;5014608;28;20448;-50
2021/06/22 06:06:23;;;;;;;0.50;0.20;;;;;;;18.46;100.00;99834.03;5014354;28;21023;-50
2021/06/22 06:08:50;;;;;;;0.50;0.20;;;;;;;18.49;99.92;99839.19;5001295;28;21033;-49
2021/06/22 06:11:16;;;;;;;0.43;0.20;;;;;;;17.96;100.00;99837.47;5014376;28;20523;-49
2021/06/22 06:13:43;;;;;;;0.40;0.27;;;;;;;17.93;100.00;99830.44;5013831;28;20491;-50
2021/06/22 06:16:09;;;;;;;0.40;0.20;;;;;;;17.79;100.00;99835.00;5014340;28;20498;-50
2021/06/22 06:18:36;;;;;;;0.40;0.20;;;;;;;17.92;100.00;99827.84;5014637;28;20460;-50
2021/06/22 06:21:03;;;;;;;0.40;0.20;;;;;;;17.89;100.00;99828.06;5006417;28;20580;-50
2021/06/22 06:23:38;;;;;;;0.60;0.60;;;;;;;18.16;100.00;99841.50;5014063;28;20934;-49
2021/06/22 06:26:06;;;;;;;0.40;0.20;;;;;;;17.60;100.00;99849.59;5014422;28;20487;-50
2021/06/22 06:28:38;;;;;;;0.40;0.20;;;;;;;17.76;100.00;99850.38;5013747;28;20456;-50
2021/06/22 06:31:05;;;;;;;0.40;0.20;;;;;;;18.03;100.00;99853.06;5013650;28;20487;-50
2021/06/22 06:33:32;;;;;;;0.40;0.20;;;;;;;18.01;100.00;99855.00;5013678;28;20449;-50
2021/06/22 06:35:59;;;;;;;0.40;0.20;;;;;;;18.05;100.00;99858.34;5003768;28;20614;-50
2021/06/22 06:38:25;;;;;;;0.50;0.30;;;;;;;18.11;100.00;99871.41;5013305;28;20456;-49
2021/06/22 06:40:52;;;;;;;0.40;0.30;;;;;;;18.24;100.00;99866.06;5001586;28;20465;-50
2021/06/22 06:43:18;;;;;;;0.50;0.40;;;;;;;18.01;100.00;99875.66;5013364;28;20511;-50
2021/06/22 06:45:45;;;;;;;0.50;0.40;;;;;;;18.34;100.00;99884.16;5012823;28;20503;-50
2021/06/22 06:48:12;;;;;;;0.40;0.20;;;;;;;18.38;100.00;99879.47;5013485;28;20487;-50
2021/06/22 06:50:39;;;;;;;0.40;0.20;;;;;;;18.13;100.00;99877.53;5012205;28;20534;-50
2021/06/22 06:53:06;;;;;;;0.47;0.30;;;;;;;18.79;100.00;99887.44;5001310;28;20476;-50
2021/06/22 06:55:38;;;;;;;0.40;0.20;;;;;;;18.46;98.28;99885.16;5013662;28;20460;-50
2021/06/22 06:58:05;;;;;;;0.40;0.30;;;;;;;18.64;100.00;99888.50;4988990;28;21028;-50
2021/06/22 07:00:37;;;;;;;0.40;0.20;;;;;;;18.30;100.00;99884.47;5013403;28;20531;-50
2021/06/22 07:03:05;;;;;;;0.40;0.20;;;;;;;18.46;100.00;99890.56;5013466;28;20452;-50
2021/06/22 07:05:33;;;;;;;0.50;0.20;;;;;;;18.99;97.33;99901.34;5013211;28;20449;-50
2021/06/22 07:08:00;;;;;;;1.17;1.07;;;;;;;18.05;100.00;99907.63;4995866;28;20531;-49
2021/06/22 07:10:28;;;;;;;0.50;0.20;;;;;;;18.08;100.00;99908.38;5008557;28;20883;-50
2021/06/22 07:12:57;;;;;;;0.40;0.20;;;;;;;18.18;100.00;99907.69;5013583;28;20452;-50
2021/06/22 07:15:24;;;;;;;0.40;0.20;;;;;;;18.28;100.00;99918.72;5012957;28;20453;-50
2021/06/22 07:17:52;;;;;;;0.40;0.20;;;;;;;18.16;100.00;99923.06;5013362;28;20854;-50
2021/06/22 07:20:19;;;;;;;0.40;0.20;;;;;;;18.36;100.00;99910.97;5012811;28;20469;-49
2021/06/22 07:22:45;;;;;;;0.47;0.30;;;;;;;18.36;100.00;99910.97;5010056;28;20958;-50
2021/06/22 07:25:14;;;;;;;0.40;0.20;;;;;;;18.04;100.00;99911.28;5013324;28;20457;-49
2021/06/22 07:27:41;;;;;;;0.40;0.20;;;;;;;18.43;100.00;99906.06;5002388;28;20499;-50
2021/06/22 07:30:08;;;;;;;0.40;0.20;;;;;;;18.53;100.00;99904.47;5013005;28;20473;-49
2021/06/22 07:32:35;;;;;;;0.40;0.20;;;;;;;18.86;98.62;99887.88;5012961;28;20878;-49
2021/06/22 07:35:02;;;;;;;0.40;0.20;;;;;;;19.16;96.43;99893.78;5010425;28;20468;-57
2021/06/22 07:37:29;;;;;;;0.40;0.20;;;;;;;18.70;97.97;99892.59;5014189;28;20868;-49
2021/06/22 07:39:56;;;;;;;0.40;0.20;;;;;;;19.48;95.15;99902.31;5008170;28;20473;-50
2021/06/22 07:42:23;;;;;;;0.43;0.30;;;;;;;19.59;95.00;99895.28;4993649;28;20832;-50
2021/06/22 07:44:49;;;;;;;0.50;0.30;;;;;;;19.63;91.98;99894.13;5011004;28;20452;-49
2021/06/22 07:47:16;;;;;;;0.40;0.20;;;;;;;19.81;92.30;99898.16;5011114;28;20558;-50
2021/06/22 07:49:43;;;;;;;0.40;0.20;;;;;;;19.09;94.68;99899.75;4999971;28;20845;-50
2021/06/22 07:52:10;;;;;;;0.40;0.20;;;;;;;19.43;93.98;99898.19;5013040;28;20520;-50
2021/06/22 07:54:37;;;;;;;0.40;0.20;;;;;;;19.46;93.74;99895.28;5012791;28;20958;-50
2021/06/22 07:57:04;;;;;;;0.40;0.20;;;;;;;19.16;95.83;99901.00;5011963;28;20449;-49
2021/06/22 07:59:31;;;;;;;0.40;0.20;;;;;;;19.14;95.01;99902.97;5012583;28;20456;-50
2021/06/22 08:01:57;;;;;;;0.40;0.20;;;;;;;19.19;96.51;99900.81;5012617;28;20869;-50
2021/06/22 08:04:24;;;;;;;0.40;0.20;;;;;;;19.43;94.10;99903.59;5002236;28;20464;-49
2021/06/22 08:06:53;;;;;;;0.40;0.20;;;;;;;19.10;94.51;99901.47;5012229;28;20546;-50
2021/06/22 08:09:20;;;;;;;0.40;0.20;;;;;;;19.08;97.23;99900.72;5012201;28;20942;-50
2021/06/22 08:11:47;;;;;;;0.40;0.20;;;;;;;19.06;95.24;99911.59;5012763;28;20472;-49
2021/06/22 08:14:14;;;;;;;0.40;0.20;;;;;;;19.12;96.76;99911.16;5012345;28;20448;-50
2021/06/22 08:16:41;;;;;;;0.40;0.20;;;;;;;19.33;95.69;99907.94;5012377;28;20445;-50
2021/06/22 08:19:08;;;;;;;0.40;0.20;;;;;;;19.27;93.94;99919.13;5001269;28;20461;-50
2021/06/22 08:21:36;;;;;;;0.50;0.20;;;;;;;19.67;92.73;99912.66;4993797;28;20541;-50
2021/06/22 08:24:03;;;;;;;0.43;0.27;;;;;;;19.57;91.41;99908.03;4998614;28;20609;-50
2021/06/22 08:26:30;;;;;;;0.50;0.20;;;;;;;19.85;90.33;99906.88;5012128;28;20566;-51
2021/06/22 08:28:57;;;;;;;0.40;0.20;;;;;;;19.43;93.79;99911.69;4986655;28;20499;-50
2021/06/22 08:31:23;;;;;;;0.50;0.20;;;;;;;19.71;93.11;99922.25;5012462;28;20495;-50
2021/06/22 08:33:50;;;;;;;0.40;0.20;;;;;;;19.46;92.04;99915.03;5010079;28;20962;-50
2021/06/22 08:36:17;;;;;;;0.40;0.20;;;;;;;19.09;93.99;99918.59;5016216;28;20423;-50
2021/06/22 08:38:43;;;;;;;0.40;0.20;;;;;;;19.12;93.29;99921.94;5016109;28;20463;-49
2021/06/22 08:41:13;;;;;;;0.40;0.20;;;;;;;19.49;93.35;99924.75;5002921;28;20519;-50
2021/06/22 08:43:41;;;;;;;0.40;0.20;;;;;;;19.21;93.80;99924.00;5016133;28;20456;-50
2021/06/22 08:46:09;;;;;;;0.40;0.20;;;;;;;19.36;93.48;99940.06;5014065;28;21012;-49
2021/06/22 08:48:36;;;;;;;0.43;0.20;;;;;;;19.55;94.22;99935.09;5016330;28;20952;-49
2021/06/22 08:51:03;;;;;;;0.50;0.20;;;;;;;19.86;91.25;99933.75;5015434;28;20491;-50
2021/06/22 08:53:29;;;;;;;0.40;0.20;;;;;;;19.18;94.13;99937.66;5015886;28;20463;-49
2021/06/22 08:55:56;;;;;;;0.40;0.20;;;;;;;19.18;94.54;99934.97;5016338;28;20448;-49
2021/06/22 08:58:23;;;;;;;0.40;0.20;;;;;;;19.65;91.91;99941.56;5016550;28;20448;-51
2021/06/22 09:00:51;;;;;;;0.40;0.20;;;;;;;19.28;93.13;99943.28;5016257;28;20472;-51
2021/06/22 09:03:24;;;;;;;0.40;0.20;;;;;;;19.39;92.67;99950.63;5015747;28;20476;-49
2021/06/22 09:05:59;;;;;;;0.40;0.20;;;;;;;19.26;92.27;99952.44;5015665;28;20454;-49
2021/06/22 09:08:27;;;;;;;0.40;0.20;;;;;;;19.58;92.92;99950.19;5015543;28;20488;-49
2021/06/22 09:11:09;;;;;;;0.40;0.20;;;;;;;19.44;92.47;99945.75;5015339;28;20475;-49
2021/06/22 09:13:37;;;;;;;0.40;0.20;;;;;;;19.46;93.05;99939.31;5015564;28;20494;-49
2021/06/22 09:16:08;;;;;;;0.40;0.20;;;;;;;19.38;92.15;99940.81;5015481;28;20457;-48
2021/06/22 09:18:37;;;;;;;0.47;0.20;;;;;;;19.23;93.33;99943.63;5015225;28;20473;-48
2021/06/22 09:21:07;;;;;;;0.40;0.20;;;;;;;19.46;92.74;99946.50;5015441;28;20519;-48
2021/06/22 09:23:36;;;;;;;0.50;0.30;;;;;;;19.47;93.67;99940.16;5015083;28;20492;-49
2021/06/22 09:26:30;;;;;;;0.40;0.20;;;;;;;19.69;92.36;99953.00;5015178;28;20514;-48
2021/06/22 09:29:09;;;;;;;0.40;0.20;;;;;;;19.15;96.22;99951.34;5013401;28;20484;-49
2021/06/22 09:31:36;;;;;;;0.50;0.20;;;;;;;19.34;95.99;99948.25;5014842;28;20518;-49
2021/06/22 09:34:12;;;;;;;0.40;0.20;;;;;;;19.05;94.33;99944.91;5015020;28;20483;-48
2021/06/22 09:36:39;;;;;;;0.40;0.20;;;;;;;19.24;94.41;99939.09;5015293;28;20526;-48
2021/06/22 09:39:07;;;;;;;0.93;0.93;;;;;;;19.31;92.83;99950.28;5015020;28;20456;-49
2021/06/22 09:41:36;;;;;;;0.50;0.20;;;;;;;19.43;93.55;99944.88;5001574;28;20468;-48
2021/06/22 09:44:08;;;;;;;0.40;0.20;;;;;;;19.06;94.52;99943.94;5014835;28;20456;-48
2021/06/22 09:46:50;;;;;;;0.40;0.20;;;;;;;19.31;93.38;99947.59;5013028;28;20519;-48
2021/06/22 09:49:21;;;;;;;0.40;0.20;;;;;;;19.07;94.26;99953.75;4998916;28;20512;-49
2021/06/22 09:52:09;;;;;;;0.40;0.20;;;;;;;18.96;96.36;99956.31;5015026;28;20453;-48
2021/06/22 09:54:46;;;;;;;0.40;0.20;;;;;;;18.80;95.64;99953.78;5015155;28;20511;-48
2021/06/22 09:57:15;;;;;;;0.40;0.20;;;;;;;18.54;96.06;99954.66;5002811;28;20499;-49
2021/06/22 09:59:45;;;;;;;0.40;0.20;;;;;;;18.86;95.16;99958.75;5013461;28;20568;-48
2021/06/22 10:02:13;;;;;;;0.40;0.20;;;;;;;18.63;96.86;99957.59;5014515;28;20532;-49
2021/06/22 10:04:51;;;;;;;0.40;0.20;;;;;;;18.69;95.37;99952.78;5014872;28;20575;-50
2021/06/22 10:07:19;;;;;;;0.40;0.20;;;;;;;18.62;95.03;99966.63;5003800;28;20573;-49
2021/06/22 10:10:05;;;;;;;0.40;0.20;;;;;;;18.73;95.98;99962.38;5015704;28;20901;-48
2021/06/22 10:12:33;;;;;;;0.40;0.20;;;;;;;18.56;96.86;99964.34;5015760;28;20526;-51
2021/06/22 10:15:03;;;;;;;0.40;0.20;;;;;;;18.83;96.00;99960.81;5014757;28;20480;-48
2021/06/22 10:17:31;;;;;;;0.43;0.20;;;;;;;18.75;95.96;99977.47;5014339;28;20469;-48
2021/06/22 10:20:00;;;;;;;0.40;0.20;;;;;;;18.98;94.60;99977.75;5012925;28;20529;-50
2021/06/22 10:22:31;;;;;;;0.73;0.40;;;;;;;19.04;94.32;99974.63;5010324;28;20492;-49
2021/06/22 10:25:00;;;;;;;0.40;0.20;;;;;;;19.66;92.17;99970.25;5014132;28;20458;-48
2021/06/22 10:27:29;;;;;;;0.40;0.20;;;;;;;19.70;90.62;99969.06;5014350;28;20520;-48
2021/06/22 10:30:00;;;;;;;0.40;0.20;;;;;;;19.55;91.43;99972.84;5013636;28;20473;-48
2021/06/22 10:32:27;;;;;;;0.40;0.20;;;;;;;19.88;92.98;99980.41;5013999;28;20445;-50
2021/06/22 10:34:56;;;;;;;0.40;0.20;;;;;;;19.80;93.19;99977.38;5013840;28;20427;-49
2021/06/22 10:37:40;;;;;;;0.50;0.40;;;;;;;20.20;91.91;99969.09;5012577;28;20448;-49
2021/06/22 10:40:22;;;;;;;0.40;0.20;;;;;;;19.88;94.92;99980.41;5006880;28;20461;-49
2021/06/22 10:42:55;;;;;;;0.50;0.30;;;;;;;19.99;93.19;99980.44;5008606;28;20427;-49
2021/06/22 10:45:56;;;;;;;0.40;0.20;;;;;;;20.33;92.68;99980.69;5012942;28;20479;-49
2021/06/22 10:48:22;;;;;;;0.40;0.20;;;;;;;20.36;91.11;99981.31;4988051;28;20496;-50
2021/06/22 10:50:49;;;;;;;0.40;0.20;;;;;;;20.13;90.96;99985.72;5013128;28;20542;-49
2021/06/22 10:53:18;;;;;;;0.40;0.20;;;;;;;20.17;91.27;99989.06;5013399;28;20456;-49
2021/06/22 10:55:45;;;;;;;0.40;0.20;;;;;;;20.17;90.71;99991.78;5012712;28;20502;-49
2021/06/22 10:58:14;;;;;;;0.40;0.20;;;;;;;20.31;90.83;99990.75;5013606;28;20448;-49
2021/06/22 11:00:48;;;;;;;0.40;0.20;;;;;;;20.25;90.66;99989.34;5012893;28;20542;-49
2021/06/22 11:03:32;;;;;;;0.40;0.20;;;;;;;20.22;91.14;99994.97;5013262;28;20472;-49
2021/06/22 11:06:13;;;;;;;0.50;0.20;;;;;;;20.18;92.84;99989.94;5013744;28;20448;-52
2021/06/22 11:08:41;;;;;;;0.40;0.20;;;;;;;19.63;96.18;99991.22;5013416;28;20554;-50
2021/06/22 11:11:09;;;;;;;0.40;0.20;;;;;;;19.64;97.21;99990.22;5013248;28;20609;-49
2021/06/22 11:14:02;;;;;;;0.50;0.30;;;;;;;20.12;96.17;99994.78;5013489;28;20503;-49
2021/06/22 11:16:31;;;;;;;0.40;0.20;;;;;;;20.11;98.02;99997.59;5010667;28;20480;-50
2021/06/22 11:19:01;;;;;;;0.40;0.27;;;;;;;20.23;99.11;99998.53;5011854;28;20445;-49
2021/06/22 11:21:33;;;;;;;0.50;0.30;;;;;;;20.01;97.81;100002.81;5006436;28;20485;-49
2021/06/22 11:24:10;;;;;;;0.40;0.20;;;;;;;19.94;99.88;100003.34;5012911;28;20930;-50
2021/06/22 11:26:39;;;;;;;0.40;0.20;;;;;;;19.72;99.88;99995.91;5012644;28;20453;-50
2021/06/22 11:29:06;;;;;;;0.40;0.20;;;;;;;19.80;100.00;99996.25;5012735;28;21005;-50
2021/06/22 11:31:52;;;;;;;0.40;0.20;;;;;;;19.66;100.00;99988.28;5007165;28;20459;-49
2021/06/22 11:34:22;;;;;;;0.47;0.30;;;;;;;19.69;100.00;99997.00;5013499;28;20540;-50
2021/06/22 11:36:55;;;;;;;0.40;0.20;;;;;;;19.53;100.00;99997.19;5012641;28;20453;-50